createdAt,value
2023-04-26T00:01:42.684Z,3.65
2023-04-26T00:11:44.760Z,3.48
2023-04-26T00:21:46.855Z,3.67
2023-04-26T00:31:49.108Z,3.64
2023-04-26T00:41:51.331Z,3.38
2023-04-26T00:51:53.843Z,3.49
2023-04-26T01:01:56.139Z,3.31
2023-04-26T01:12:00.401Z,3.26
2023-04-26T01:22:04.151Z,3.16
2023-04-26T01:32:06.318Z,3.20
2023-04-26T01:42:08.436Z,3.14
2023-04-26T01:52:10.569Z,2.38
2023-04-26T02:02:12.656Z,3.05
2023-04-26T02:12:14.842Z,3.09
2023-04-26T02:22:17.480Z,2.86
2023-04-26T02:32:19.650Z,2.94
2023-04-26T02:42:21.807Z,1.98
2023-04-26T02:52:24.073Z,2.54
2023-04-26T03:02:26.452Z,2.51
2023-04-26T03:12:28.929Z,2.58
2023-04-26T03:22:31.216Z,2.17
2023-04-26T03:32:33.565Z,2.30
2023-04-26T03:42:36.847Z,2.29
2023-04-26T03:52:39.065Z,2.50
2023-04-26T04:02:42.086Z,2.44
2023-04-26T04:12:48.361Z,2.54
2023-04-26T04:22:51.116Z,2.60
2023-04-26T04:32:53.644Z,2.25
2023-04-26T04:42:56.238Z,2.64
2023-04-26T04:53:00.914Z,2.32
2023-04-26T05:03:04.656Z,2.69
2023-04-26T05:13:07.223Z,2.79
2023-04-26T05:23:09.841Z,2.57
2023-04-26T05:33:12.028Z,2.91
2023-04-26T05:43:37.738Z,3.16
2023-04-26T05:53:42.094Z,3.47
2023-04-26T06:03:45.412Z,3.07
2023-04-26T06:13:49.709Z,3.55
2023-04-26T06:23:52.745Z,3.93
2023-04-26T06:33:57.917Z,3.96
2023-04-26T10:19:21.329Z,0.92
2023-04-26T10:29:25.770Z,1.50
2023-04-26T10:39:28.245Z,2.05
2023-04-26T10:49:45.920Z,2.58
2023-04-26T11:00:08.355Z,2.18
2023-04-26T11:10:10.646Z,1.40
2023-04-26T11:20:21.600Z,1.27
2023-04-26T11:30:23.745Z,2.83
2023-04-26T11:40:29.011Z,2.65
2023-04-26T11:50:38.597Z,2.75
2023-04-26T12:01:07.702Z,2.55
2023-04-26T12:11:09.761Z,2.85
2023-04-26T12:21:13.475Z,3.35
2023-04-26T12:31:15.848Z,3.11
2023-04-26T12:41:30.664Z,3.33
2023-04-26T12:51:47.496Z,4.48
2023-04-26T13:01:49.651Z,5.60
2023-04-26T13:11:52.251Z,5.69
2023-04-26T13:21:55.687Z,4.91
2023-04-26T13:31:59.250Z,3.57
2023-04-26T13:42:02.003Z,3.66
2023-04-26T13:52:04.093Z,4.51
2023-04-26T14:02:06.733Z,4.73
2023-04-26T14:12:09.849Z,4.03
2023-04-26T14:22:12.985Z,4.36
2023-04-26T14:32:15.296Z,3.95
2023-04-26T14:42:17.539Z,3.41
2023-04-26T14:52:19.590Z,3.93
2023-04-26T15:02:22.955Z,4.10
2023-04-26T15:12:25.331Z,3.89
2023-04-26T15:22:27.564Z,4.11
2023-04-26T15:32:30.167Z,4.56
2023-04-26T15:42:32.400Z,4.61
2023-04-26T15:52:38.560Z,4.51
2023-04-26T16:02:44.467Z,4.59
2023-04-26T16:12:46.907Z,4.33
2023-04-26T16:22:49.907Z,4.78
2023-04-26T16:32:52.119Z,4.32
2023-04-26T16:42:54.180Z,3.68
2023-04-26T16:52:56.232Z,4.21
2023-04-26T17:02:58.387Z,4.47
2023-04-26T17:13:01.692Z,3.84
2023-04-26T17:23:04.488Z,4.52
2023-04-26T17:33:07.500Z,4.59
2023-04-26T17:43:09.769Z,4.31
2023-04-26T17:53:12.017Z,3.95
2023-04-26T18:03:14.341Z,3.93
2023-04-26T18:13:16.646Z,3.81
2023-04-26T18:23:19.325Z,3.71
2023-04-26T18:33:22.129Z,3.72
2023-04-26T18:43:24.353Z,3.72
2023-04-26T18:53:26.468Z,3.53
2023-04-26T19:03:28.858Z,3.63
2023-04-26T19:13:31.133Z,3.50
2023-04-26T19:23:33.767Z,3.52
2023-04-26T19:33:36.870Z,3.25
2023-04-26T19:43:38.972Z,3.14
2023-04-26T19:53:41.392Z,2.92
2023-04-26T20:03:43.612Z,2.91
2023-04-26T20:13:46.388Z,3.04
2023-04-26T20:23:48.582Z,3.09
2023-04-26T20:33:50.730Z,3.25
2023-04-26T20:43:53.133Z,3.26
2023-04-26T20:53:55.322Z,3.14
2023-04-26T21:03:57.539Z,3.34
2023-04-26T21:13:59.685Z,3.11
2023-04-26T21:24:02.477Z,2.95
2023-04-26T21:34:04.522Z,3.29
2023-04-26T21:44:06.607Z,2.87
2023-04-26T21:54:09.298Z,2.92
2023-04-26T22:04:11.596Z,2.94
2023-04-26T22:14:14.055Z,2.87
2023-04-26T22:24:16.101Z,2.74
2023-04-26T22:34:20.024Z,2.72
2023-04-26T22:44:22.806Z,2.67
2023-04-26T22:54:24.871Z,2.42
2023-04-26T23:04:27.181Z,2.43
2023-04-26T23:14:30.371Z,2.25
2023-04-26T23:24:32.433Z,1.83
2023-04-26T23:34:34.485Z,1.80
2023-04-26T23:44:36.530Z,2.08
2023-04-26T23:54:38.613Z,2.00
